Time;durP1;ratioP1;P1;durP2;ratioP2;P2;SDS_P1;SDS_P2;PMS_P1;PMS_P2;Temp;Humidity;BMP_temperature;BMP_pressure;BME280_temperature;BME280_humidity;BME280_pressure;Samples;Min_cycle;Max_cycle;Signal;HPM_P1;HPM_P2
2022/01/29 00:00:05;;;;;;;25.85;7.60;;;2.20;99.90;;;;;;2071805;28;20053;-74
2022/01/29 00:01:12;;;;;;;;;;;2.20;99.90;;;;;;2072605;28;20026;-72
2022/01/29 00:02:15;;;;;;;26.23;6.57;;;2.20;99.90;;;;;;2072223;28;19964;-73
2022/01/29 00:03:16;;;;;;;21.00;7.15;;;2.20;99.90;;;;;;2071861;28;20030;-72
2022/01/29 00:04:17;;;;;;;29.60;7.57;;;2.20;99.90;;;;;;2063636;28;20446;-72
2022/01/29 00:05:17;;;;;;;24.40;6.97;;;2.20;99.90;;;;;;2071918;28;20041;-72
2022/01/29 00:06:18;;;;;;;29.30;6.28;;;2.20;99.90;;;;;;2073643;28;20040;-71
2022/01/29 00:07:18;;;;;;;23.50;5.45;;;2.20;99.90;;;;;;2074449;28;20044;-71
2022/01/29 00:08:19;;;;;;;22.77;5.68;;;2.20;99.90;;;;;;2073846;28;20044;-72
2022/01/29 00:09:20;;;;;;;29.30;6.13;;;2.20;99.90;;;;;;2074464;28;20034;-72
2022/01/29 00:10:21;;;;;;;24.40;5.93;;;2.30;99.90;;;;;;2074342;28;20421;-72
2022/01/29 00:11:27;;;;;;;22.30;5.78;;;2.30;99.90;;;;;;2074438;28;20034;-72
2022/01/29 00:12:28;;;;;;;25.40;5.68;;;2.30;99.90;;;;;;2073196;28;20018;-71
2022/01/29 00:13:31;;;;;;;25.13;5.47;;;2.30;99.90;;;;;;2065290;28;20506;-71
2022/01/29 00:14:32;;;;;;;24.52;5.65;;;2.30;99.90;;;;;;2073464;28;20121;-72
2022/01/29 00:15:32;;;;;;;27.02;6.13;;;2.30;99.90;;;;;;2078650;28;20021;-71
2022/01/29 00:16:34;;;;;;;22.00;5.68;;;2.40;99.90;;;;;;2082149;28;20033;-72
2022/01/29 00:17:35;;;;;;;25.13;5.80;;;2.40;99.90;;;;;;2073959;28;20068;-72
2022/01/29 00:18:36;;;;;;;21.90;5.47;;;2.40;99.90;;;;;;2073976;28;20030;-72
2022/01/29 00:19:40;;;;;;;21.83;5.20;;;2.40;99.90;;;;;;2073468;28;20113;-72
2022/01/29 00:20:41;;;;;;;25.08;5.70;;;2.40;99.90;;;;;;2082202;28;20022;-71
2022/01/29 00:21:41;;;;;;;22.25;5.70;;;2.40;99.90;;;;;;2081948;28;20626;-71
2022/01/29 00:22:42;;;;;;;23.55;5.22;;;2.50;99.90;;;;;;2081995;28;20021;-71
2022/01/29 00:23:43;;;;;;;25.80;6.13;;;2.40;99.90;;;;;;2081428;28;20025;-72
2022/01/29 00:24:43;;;;;;;27.75;5.95;;;2.50;99.90;;;;;;2081256;28;20535;-70
2022/01/29 00:25:44;;;;;;;27.73;5.80;;;2.50;99.90;;;;;;2073150;28;20535;-72
2022/01/29 00:26:45;;;;;;;28.92;5.75;;;2.50;99.90;;;;;;2073530;28;20085;-72
2022/01/29 00:27:46;;;;;;;24.25;5.97;;;2.50;99.90;;;;;;2081553;28;20049;-71
2022/01/29 00:28:46;;;;;;;22.80;5.32;;;2.60;99.90;;;;;;2081897;28;20053;-71
2022/01/29 00:29:50;;;;;;;22.92;5.60;;;2.50;99.90;;;;;;2081831;28;20052;-71
2022/01/29 00:30:51;;;;;;;25.85;5.72;;;2.50;99.90;;;;;;2082434;28;20035;-70
2022/01/29 00:31:52;;;;;;;23.50;6.05;;;2.50;99.90;;;;;;2082143;28;20669;-70
2022/01/29 00:32:52;;;;;;;23.23;5.95;;;2.50;99.90;;;;;;2082380;28;20036;-71
2022/01/29 00:33:53;;;;;;;27.65;6.60;;;2.50;99.90;;;;;;2081358;28;20022;-71
2022/01/29 00:34:54;;;;;;;28.65;6.05;;;2.50;99.90;;;;;;2081280;28;20588;-71
2022/01/29 00:35:54;;;;;;;32.15;6.40;;;2.60;99.90;;;;;;2080998;28;20115;-70
2022/01/29 00:36:55;;;;;;;28.60;5.97;;;2.60;99.90;;;;;;2082034;28;20041;-72
2022/01/29 00:37:56;;;;;;;27.02;5.93;;;2.60;99.90;;;;;;2065547;28;20046;-72
2022/01/29 00:38:56;;;;;;;23.65;5.75;;;2.60;99.90;;;;;;2065182;28;20022;-72
2022/01/29 00:39:57;;;;;;;26.08;6.07;;;2.60;99.90;;;;;;2081601;28;20044;-70
2022/01/29 00:40:58;;;;;;;23.60;6.72;;;2.60;99.90;;;;;;2082231;28;20034;-71
2022/01/29 00:41:59;;;;;;;20.58;5.57;;;2.60;99.90;;;;;;2081209;28;20112;-71
2022/01/29 00:42:59;;;;;;;27.95;5.80;;;2.60;99.90;;;;;;2081519;28;20033;-70
2022/01/29 00:44:00;;;;;;;27.88;5.88;;;2.60;99.90;;;;;;2081460;28;20152;-71
2022/01/29 00:45:01;;;;;;;25.45;5.85;;;2.60;99.90;;;;;;2081590;28;20446;-71
2022/01/29 00:46:01;;;;;;;28.00;5.55;;;2.60;99.90;;;;;;2081663;28;20404;-71
2022/01/29 00:47:02;;;;;;;27.65;6.22;;;2.60;99.90;;;;;;2073479;28;20452;-72
2022/01/29 00:48:03;;;;;;;27.15;5.80;;;2.60;99.90;;;;;;2073557;28;20138;-70
2022/01/29 00:49:04;;;;;;;28.10;5.70;;;2.60;99.90;;;;;;2081551;28;20033;-72
2022/01/29 00:50:05;;;;;;;28.27;6.18;;;2.70;99.90;;;;;;2081236;28;20032;-72
2022/01/29 00:51:05;;;;;;;24.17;5.88;;;2.60;99.90;;;;;;2081187;28;20451;-71
2022/01/29 00:52:06;;;;;;;27.23;5.50;;;2.60;99.90;;;;;;2080615;28;20481;-73
2022/01/29 00:53:07;;;;;;;31.92;5.90;;;2.60;99.90;;;;;;2081261;28;20044;-72
2022/01/29 00:54:08;;;;;;;28.45;5.75;;;2.60;99.90;;;;;;2081743;28;20116;-72
2022/01/29 00:55:10;;;;;;;27.73;5.60;;;2.60;99.90;;;;;;2081110;28;20768;-71
2022/01/29 00:56:10;;;;;;;32.67;5.53;;;2.70;99.90;;;;;;2080665;28;20085;-72
2022/01/29 00:57:11;;;;;;;24.58;5.80;;;2.70;99.90;;;;;;2081150;28;20173;-71
2022/01/29 00:58:12;;;;;;;22.50;5.15;;;2.70;99.90;;;;;;2081667;28;20393;-70
2022/01/29 00:59:12;;;;;;;25.38;5.30;;;2.70;99.90;;;;;;2081973;28;20535;-72
2022/01/29 01:00:14;;;;;;;26.05;5.75;;;2.70;99.90;;;;;;2081239;28;20037;-71
2022/01/29 01:01:14;;;;;;;26.95;5.50;;;2.70;99.90;;;;;;2081448;28;20385;-71
2022/01/29 01:02:15;;;;;;;26.52;5.03;;;2.60;99.90;;;;;;2081090;28;20034;-71
2022/01/29 01:03:16;;;;;;;23.67;5.43;;;2.60;99.90;;;;;;2081396;28;20034;-71
2022/01/29 01:04:17;;;;;;;25.13;5.50;;;2.70;99.90;;;;;;2073221;28;20427;-71
2022/01/29 01:05:17;;;;;;;20.75;4.85;;;2.60;99.90;;;;;;2081603;28;20549;-71
2022/01/29 01:06:18;;;;;;;26.38;5.57;;;2.60;99.90;;;;;;2081019;28;20108;-71
2022/01/29 01:07:19;;;;;;;21.42;5.22;;;2.60;99.90;;;;;;2071268;28;20041;-72
2022/01/29 01:08:23;;;;;;;25.00;5.28;;;2.60;99.90;;;;;;2080041;28;20029;-71
2022/01/29 01:09:29;;;;;;;21.92;5.07;;;2.60;99.90;;;;;;2077388;28;20022;-71
2022/01/29 01:10:30;;;;;;;31.23;5.53;;;2.60;99.90;;;;;;2082072;28;20056;-70
2022/01/29 01:11:31;;;;;;;20.58;5.32;;;2.60;99.90;;;;;;2072862;28;20025;-69
2022/01/29 01:12:32;;;;;;;25.95;5.60;;;2.60;99.90;;;;;;2083173;28;20033;-70
2022/01/29 01:13:33;;;;;;;24.88;5.85;;;2.60;99.90;;;;;;2082678;28;20038;-70
2022/01/29 01:14:35;;;;;;;24.88;5.45;;;2.60;99.90;;;;;;2081793;28;20022;-69
2022/01/29 01:15:36;;;;;;;28.65;5.88;;;2.60;99.90;;;;;;2066273;28;20109;-69
2022/01/29 01:16:37;;;;;;;27.70;5.70;;;2.60;99.90;;;;;;2073525;28;20026;-69
2022/01/29 01:17:38;;;;;;;27.70;5.40;;;2.60;99.90;;;;;;2074177;28;20054;-69
2022/01/29 01:18:38;;;;;;;22.15;5.10;;;2.60;99.90;;;;;;2075130;28;20482;-69
2022/01/29 01:19:39;;;;;;;23.08;5.40;;;2.60;99.90;;;;;;2075345;28;20022;-69
2022/01/29 01:20:40;;;;;;;28.33;5.88;;;2.70;99.90;;;;;;2078646;28;20022;-68
2022/01/29 01:21:41;;;;;;;26.13;5.13;;;2.70;99.90;;;;;;2078726;28;20040;-68
2022/01/29 01:22:42;;;;;;;22.98;5.60;;;2.70;99.90;;;;;;2079174;28;20025;-70
2022/01/29 01:23:42;;;;;;;23.17;5.43;;;2.70;99.90;;;;;;2085669;28;20029;-69
2022/01/29 01:24:43;;;;;;;26.35;5.45;;;2.70;99.90;;;;;;2085831;28;20044;-70
2022/01/29 01:25:44;;;;;;;22.02;5.15;;;2.70;99.90;;;;;;2082659;28;20028;-70
2022/01/29 01:26:45;;;;;;;29.52;5.57;;;2.70;99.90;;;;;;2082911;28;20022;-69
2022/01/29 01:27:46;;;;;;;23.23;4.70;;;2.70;99.90;;;;;;2083797;28;20022;-71
2022/01/29 01:28:46;;;;;;;25.02;5.03;;;2.80;99.90;;;;;;2083152;28;20069;-70
2022/01/29 01:29:47;;;;;;;21.40;5.05;;;2.80;99.90;;;;;;2082502;28;20354;-69
2022/01/29 01:30:50;;;;;;;22.85;5.55;;;2.70;99.90;;;;;;2083229;28;20049;-70
2022/01/29 01:31:51;;;;;;;28.00;5.68;;;2.80;99.90;;;;;;2082405;28;20384;-71
2022/01/29 01:32:52;;;;;;;27.67;5.32;;;2.80;99.90;;;;;;2082657;28;20118;-68
2022/01/29 01:33:52;;;;;;;26.45;5.30;;;2.80;99.90;;;;;;2082932;28;20025;-69
2022/01/29 01:34:56;;;;;;;26.10;5.13;;;2.80;99.90;;;;;;2081719;28;20083;-69
2022/01/29 01:36:01;;;;;;;21.77;5.07;;;2.80;99.90;;;;;;2075623;28;20034;-70
2022/01/29 01:37:08;;;;;;;22.55;5.45;;;2.80;99.90;;;;;;2083154;28;20033;-69
2022/01/29 01:39:25;;;;;;;25.17;5.43;;;2.80;99.90;;;;;;2081919;28;20048;-69
2022/01/29 01:40:27;;;;;;;22.58;4.68;;;2.80;99.90;;;;;;2082603;28;20081;-69
2022/01/29 01:41:34;;;;;;;18.23;4.57;;;2.80;99.90;;;;;;2072955;28;20547;-70
2022/01/29 01:42:36;;;;;;;14.60;4.10;;;2.80;99.90;;;;;;2066728;28;20034;-70
2022/01/29 01:43:36;;;;;;;21.60;4.82;;;2.80;99.90;;;;;;2077606;28;20025;-71
2022/01/29 01:44:42;;;;;;;25.08;5.07;;;2.80;99.90;;;;;;2089468;28;20073;-69
2022/01/29 01:45:44;;;;;;;24.02;5.13;;;2.80;99.90;;;;;;2078524;28;20045;-69
2022/01/29 01:46:45;;;;;;;19.75;4.88;;;2.80;99.90;;;;;;2079346;28;20307;-69
2022/01/29 01:47:46;;;;;;;19.85;4.70;;;2.80;99.90;;;;;;2080944;28;20481;-70
2022/01/29 01:48:47;;;;;;;22.33;4.88;;;2.80;99.90;;;;;;2082642;28;20053;-71
2022/01/29 01:49:48;;;;;;;15.60;4.30;;;2.80;99.90;;;;;;2076285;28;20033;-69
2022/01/29 01:50:50;;;;;;;16.40;4.47;;;2.80;99.90;;;;;;2079260;28;20515;-71
2022/01/29 01:51:50;;;;;;;18.35;4.90;;;2.80;99.90;;;;;;2082281;28;20025;-70
2022/01/29 01:52:52;;;;;;;21.52;4.82;;;2.80;99.90;;;;;;2080971;28;20026;-70
2022/01/29 01:53:53;;;;;;;18.23;4.53;;;2.90;99.90;;;;;;2080857;28;20033;-70
2022/01/29 01:54:53;;;;;;;26.58;5.07;;;2.90;99.90;;;;;;2082091;28;20088;-70
2022/01/29 01:55:54;;;;;;;19.38;4.65;;;2.90;99.90;;;;;;2081103;28;20377;-70
2022/01/29 01:56:55;;;;;;;21.40;4.88;;;2.90;99.90;;;;;;2081437;28;20049;-70
2022/01/29 01:57:57;;;;;;;18.00;4.45;;;2.90;99.90;;;;;;2082253;28;20052;-69
2022/01/29 01:58:58;;;;;;;23.50;5.47;;;3.00;99.90;;;;;;2081667;28;20037;-70
2022/01/29 01:59:59;;;;;;;24.00;4.85;;;3.00;99.90;;;;;;2080764;28;20501;-68
2022/01/29 02:01:00;;;;;;;23.58;4.70;;;3.00;99.90;;;;;;2082337;28;20041;-69
2022/01/29 02:02:01;;;;;;;20.40;5.25;;;3.00;99.90;;;;;;2074399;28;20057;-71
2022/01/29 02:03:02;;;;;;;23.48;4.47;;;3.00;99.90;;;;;;2080697;28;20041;-69
2022/01/29 02:04:03;;;;;;;22.90;4.50;;;3.00;99.90;;;;;;2072787;28;20092;-70
2022/01/29 02:05:04;;;;;;;20.63;5.00;;;3.00;99.90;;;;;;2072952;28;20782;-69
2022/01/29 02:06:05;;;;;;;20.88;4.20;;;3.00;99.90;;;;;;2074120;28;20041;-69
2022/01/29 02:07:06;;;;;;;26.48;4.88;;;3.00;99.90;;;;;;2082729;28;20059;-69
2022/01/29 02:08:08;;;;;;;20.33;5.10;;;3.00;99.90;;;;;;2074128;28;20080;-70
2022/01/29 02:09:11;;;;;;;21.42;5.22;;;3.10;99.90;;;;;;2080408;28;20029;-70
2022/01/29 02:10:13;;;;;;;22.88;4.55;;;3.10;99.90;;;;;;2080489;28;20096;-70
2022/01/29 02:11:14;;;;;;;24.52;4.68;;;3.10;99.90;;;;;;2080482;28;20037;-70
2022/01/29 02:12:14;;;;;;;16.00;4.65;;;3.10;99.90;;;;;;2072180;28;20026;-69
2022/01/29 02:13:15;;;;;;;21.27;4.40;;;3.10;99.90;;;;;;2072362;28;20128;-70
2022/01/29 02:14:18;;;;;;;17.45;4.40;;;3.10;99.90;;;;;;2080436;28;20026;-69
2022/01/29 02:15:20;;;;;;;19.92;4.88;;;3.10;99.90;;;;;;2072265;28;20121;-69
2022/01/29 02:16:21;;;;;;;18.80;4.65;;;3.10;99.90;;;;;;2080525;28;20681;-69
2022/01/29 02:17:21;;;;;;;19.90;4.50;;;3.20;99.90;;;;;;2081131;28;20120;-69
2022/01/29 02:18:22;;;;;;;16.95;4.72;;;3.20;99.90;;;;;;2080625;28;20029;-69
2022/01/29 02:19:23;;;;;;;18.80;4.93;;;3.20;99.90;;;;;;2080513;28;20037;-69
2022/01/29 02:20:26;;;;;;;17.48;4.28;;;3.20;99.90;;;;;;2082068;28;20104;-70
2022/01/29 02:21:27;;;;;;;21.63;4.72;;;3.20;99.90;;;;;;2081682;28;20044;-68
2022/01/29 02:22:28;;;;;;;23.85;5.07;;;3.20;99.90;;;;;;2083884;28;20068;-69
2022/01/29 02:23:28;;;;;;;22.90;4.45;;;3.20;99.90;;;;;;2085488;28;20028;-70
2022/01/29 02:24:29;;;;;;;18.50;4.65;;;3.20;99.90;;;;;;2086120;28;20048;-68
2022/01/29 02:25:37;;;;;;;28.27;5.03;;;3.20;99.90;;;;;;2086206;28;20045;-68
2022/01/29 02:26:38;;;;;;;22.88;5.07;;;3.20;99.90;;;;;;2087447;28;20071;-69
2022/01/29 02:27:39;;;;;;;21.25;5.13;;;3.30;99.90;;;;;;2087561;28;20053;-69
2022/01/29 02:28:39;;;;;;;22.90;4.90;;;3.30;99.90;;;;;;2087252;28;20029;-68
2022/01/29 02:29:40;;;;;;;20.00;4.53;;;3.30;99.90;;;;;;2078683;28;20516;-69
2022/01/29 02:30:43;;;;;;;17.33;4.68;;;3.30;99.90;;;;;;2087058;28;20099;-69
2022/01/29 02:31:56;;;;;;;17.15;4.75;;;3.30;99.90;;;;;;2087523;28;20037;-68
2022/01/29 02:32:57;;;;;;;25.55;5.10;;;3.30;99.90;;;;;;2087759;28;20117;-68
2022/01/29 02:33:58;;;;;;;19.60;4.97;;;3.20;99.90;;;;;;2087681;28;20022;-69
2022/01/29 02:34:59;;;;;;;19.65;5.25;;;3.30;99.90;;;;;;2088118;28;20033;-68
2022/01/29 02:36:00;;;;;;;27.58;5.50;;;3.30;99.90;;;;;;2086935;28;20493;-69
2022/01/29 02:37:01;;;;;;;19.50;4.78;;;3.30;99.90;;;;;;2088175;28;20083;-69
2022/01/29 02:38:01;;;;;;;18.40;5.20;;;3.30;99.90;;;;;;2088122;28;20036;-68
2022/01/29 02:39:02;;;;;;;21.60;5.38;;;3.30;99.90;;;;;;2088537;28;20105;-69
2022/01/29 02:40:03;;;;;;;18.95;5.38;;;3.30;99.90;;;;;;2079185;28;20061;-71
2022/01/29 02:41:06;;;;;;;21.02;5.55;;;3.30;99.90;;;;;;2078272;28;20026;-69
2022/01/29 02:42:07;;;;;;;22.48;5.00;;;3.30;99.90;;;;;;2086569;28;20029;-68
2022/01/29 02:43:21;;;;;;;21.58;5.85;;;3.30;99.90;;;;;;2085936;28;20065;-68
2022/01/29 02:44:22;;;;;;;24.75;5.80;;;3.30;99.90;;;;;;2085220;28;20032;-68
2022/01/29 02:45:26;;;;;;;21.73;5.30;;;3.30;99.90;;;;;;2085144;28;20052;-68
2022/01/29 02:46:42;;;;;;;19.30;4.78;;;3.30;99.90;;;;;;2085977;28;20053;-68
2022/01/29 02:47:43;;;;;;;20.88;5.18;;;3.30;99.90;;;;;;2085603;28;20014;-68
2022/01/29 02:48:51;;;;;;;20.55;5.13;;;3.30;99.90;;;;;;2085550;28;20081;-69
2022/01/29 02:49:51;;;;;;;20.05;5.28;;;3.30;99.90;;;;;;2084863;28;20040;-69
2022/01/29 02:50:52;;;;;;;19.67;5.32;;;3.30;99.90;;;;;;2084862;28;20029;-69
2022/01/29 02:51:57;;;;;;;17.75;4.95;;;3.30;99.90;;;;;;2085027;28;20022;-69
2022/01/29 02:52:58;;;;;;;16.00;4.78;;;3.30;99.90;;;;;;2085523;28;20053;-70
2022/01/29 02:53:58;;;;;;;18.42;4.60;;;3.30;99.90;;;;;;2084613;28;20041;-68
2022/01/29 02:54:59;;;;;;;14.88;4.72;;;3.30;99.90;;;;;;2083281;28;20492;-69
2022/01/29 02:56:00;;;;;;;14.88;4.88;;;3.20;99.90;;;;;;2074456;28;20109;-69
2022/01/29 02:57:00;;;;;;;18.42;4.72;;;3.20;99.90;;;;;;2081734;28;20090;-69
2022/01/29 02:58:01;;;;;;;15.73;4.32;;;3.30;99.90;;;;;;2085251;28;20025;-70
2022/01/29 02:59:02;;;;;;;19.08;5.28;;;3.30;99.90;;;;;;2081122;28;20044;-69
2022/01/29 03:00:03;;;;;;;15.80;4.80;;;3.30;99.90;;;;;;2080994;28;20564;-69
2022/01/29 03:01:06;;;;;;;20.35;4.93;;;3.30;99.90;;;;;;2080403;28;20041;-69
2022/01/29 03:02:06;;;;;;;20.23;5.10;;;3.40;99.90;;;;;;2080369;28;20393;-69
2022/01/29 03:03:07;;;;;;;21.60;5.18;;;3.40;99.90;;;;;;2081363;28;20029;-69
2022/01/29 03:04:09;;;;;;;21.50;5.07;;;3.40;99.90;;;;;;2081166;28;20029;-69
2022/01/29 03:05:09;;;;;;;18.02;4.32;;;3.40;99.90;;;;;;2081469;28;20026;-70
2022/01/29 03:06:10;;;;;;;20.33;5.20;;;3.40;99.90;;;;;;2080779;28;20077;-70
2022/01/29 03:07:11;;;;;;;18.75;4.88;;;3.50;99.90;;;;;;2081066;28;20504;-69
2022/01/29 03:08:12;;;;;;;16.38;4.78;;;3.50;99.90;;;;;;2080774;28;20056;-70
2022/01/29 03:09:12;;;;;;;18.65;4.82;;;3.50;99.90;;;;;;2080219;28;20064;-70
2022/01/29 03:10:13;;;;;;;24.70;4.88;;;3.50;99.90;;;;;;2071895;28;20018;-70
2022/01/29 03:11:19;;;;;;;17.55;4.82;;;3.50;99.90;;;;;;2080700;28;20463;-70
2022/01/29 03:12:19;;;;;;;18.33;4.88;;;3.50;99.90;;;;;;2080902;28;20038;-69
2022/01/29 03:13:20;;;;;;;18.75;5.07;;;3.60;99.90;;;;;;2081505;28;20155;-69
2022/01/29 03:14:20;;;;;;;20.15;4.90;;;3.60;99.90;;;;;;2081179;28;20025;-71
2022/01/29 03:15:21;;;;;;;18.02;5.22;;;3.60;99.90;;;;;;2080045;28;20033;-69
2022/01/29 03:16:22;;;;;;;17.75;5.50;;;3.60;99.90;;;;;;2072625;28;20068;-70
2022/01/29 03:17:22;;;;;;;19.98;5.10;;;3.60;99.90;;;;;;2072768;28;20038;-69
2022/01/29 03:18:23;;;;;;;18.75;5.50;;;3.60;99.90;;;;;;2080244;28;20025;-70
2022/01/29 03:19:24;;;;;;;14.57;4.80;;;3.60;99.90;;;;;;2071927;28;20025;-69
2022/01/29 03:20:25;;;;;;;19.55;4.60;;;3.60;99.90;;;;;;2079867;28;20034;-69
2022/01/29 03:21:25;;;;;;;20.45;5.35;;;3.60;99.90;;;;;;2080513;28;20053;-70
2022/01/29 03:22:26;;;;;;;17.58;4.78;;;3.60;99.90;;;;;;2081333;28;20057;-70
2022/01/29 03:23:26;;;;;;;22.48;5.15;;;3.70;99.90;;;;;;2081118;28;20080;-70
2022/01/29 03:24:27;;;;;;;16.48;4.78;;;3.70;99.90;;;;;;2081101;28;20030;-69
2022/01/29 03:25:28;;;;;;;20.70;5.25;;;3.70;99.90;;;;;;2080474;28;20048;-69
2022/01/29 03:26:28;;;;;;;18.90;5.75;;;3.70;99.90;;;;;;2080609;28;20052;-69
2022/01/29 03:27:29;;;;;;;16.42;5.07;;;3.70;99.90;;;;;;2072225;28;20453;-69
2022/01/29 03:28:30;;;;;;;15.93;4.93;;;3.70;99.90;;;;;;2080568;28;20029;-70
2022/01/29 03:29:31;;;;;;;12.63;4.38;;;3.70;99.90;;;;;;2080529;28;20037;-68
2022/01/29 03:30:31;;;;;;;13.15;4.20;;;3.70;99.90;;;;;;2072308;28;20053;-70
2022/01/29 03:31:32;;;;;;;12.15;4.57;;;3.70;99.90;;;;;;2080319;28;20064;-68
2022/01/29 03:32:33;;;;;;;15.23;5.07;;;3.70;99.90;;;;;;2080414;28;20041;-69
2022/01/29 03:33:33;;;;;;;18.92;5.10;;;3.70;99.90;;;;;;2080322;28;20107;-69
2022/01/29 03:34:34;;;;;;;17.67;5.85;;;3.70;99.90;;;;;;2081096;28;20061;-70
2022/01/29 03:35:35;;;;;;;16.08;5.03;;;3.70;99.90;;;;;;2079695;28;20033;-69
2022/01/29 03:36:35;;;;;;;12.93;5.18;;;3.70;99.90;;;;;;2072102;28;20129;-69
2022/01/29 03:37:36;;;;;;;13.35;4.70;;;3.80;99.90;;;;;;2080351;28;20044;-70
2022/01/29 03:38:40;;;;;;;12.57;4.93;;;3.80;99.90;;;;;;2081025;28;20037;-69
2022/01/29 03:39:42;;;;;;;16.40;4.90;;;3.80;99.90;;;;;;2080651;28;20645;-70
2022/01/29 03:40:46;;;;;;;15.82;5.40;;;3.80;99.90;;;;;;2081353;28;20029;-70
2022/01/29 03:41:46;;;;;;;16.67;5.97;;;3.80;99.90;;;;;;2082226;28;20061;-70
2022/01/29 03:43:00;;;;;;;14.07;5.10;;;3.80;99.90;;;;;;2082749;28;20048;-70
2022/01/29 03:44:04;;;;;;;16.23;5.57;;;3.90;99.90;;;;;;2082133;28;20033;-70
2022/01/29 03:45:07;;;;;;;17.20;5.65;;;3.80;99.90;;;;;;2082339;28;20193;-70
2022/01/29 03:46:08;;;;;;;22.33;6.18;;;3.90;99.90;;;;;;2082297;28;20048;-71
2022/01/29 03:47:09;;;;;;;15.20;5.60;;;3.90;99.90;;;;;;2082369;28;20449;-69
2022/01/29 03:48:09;;;;;;;17.38;5.53;;;3.90;99.90;;;;;;2082642;28;20117;-69
2022/01/29 03:49:10;;;;;;;14.18;5.50;;;3.90;99.90;;;;;;2082569;28;20076;-69
2022/01/29 03:50:11;;;;;;;17.77;6.20;;;3.90;99.90;;;;;;2082541;28;20033;-69
2022/01/29 03:51:11;;;;;;;17.42;5.88;;;3.90;99.90;;;;;;2082257;28;20038;-70
2022/01/29 03:52:12;;;;;;;18.80;5.88;;;3.90;99.90;;;;;;2073237;28;20040;-69
2022/01/29 03:53:13;;;;;;;21.90;6.15;;;3.90;99.90;;;;;;2081836;28;20033;-70
2022/01/29 03:54:13;;;;;;;17.83;5.93;;;3.90;99.90;;;;;;2081865;28;20068;-70
2022/01/29 03:55:14;;;;;;;15.07;6.00;;;3.90;99.90;;;;;;2082001;28;20033;-69
2022/01/29 03:56:15;;;;;;;19.45;6.38;;;3.90;99.90;;;;;;2082566;28;20033;-70
2022/01/29 03:57:15;;;;;;;18.00;6.22;;;3.90;99.90;;;;;;2084292;28;20127;-69
2022/01/29 03:58:16;;;;;;;20.70;6.65;;;3.90;99.90;;;;;;2084598;28;20030;-71
2022/01/29 03:59:17;;;;;;;20.60;6.25;;;4.00;99.90;;;;;;2084393;28;20136;-69
2022/01/29 04:00:18;;;;;;;16.60;5.97;;;4.00;99.90;;;;;;2083678;28;20037;-68
2022/01/29 04:01:19;;;;;;;19.20;6.00;;;4.00;99.90;;;;;;2082361;28;20093;-69
2022/01/29 04:02:20;;;;;;;17.60;5.70;;;4.00;99.90;;;;;;2074106;28;20033;-68
2022/01/29 04:03:20;;;;;;;17.02;6.03;;;4.00;99.90;;;;;;2074014;28;20029;-69
2022/01/29 04:04:21;;;;;;;13.48;5.90;;;4.00;99.90;;;;;;2082617;28;20057;-70
2022/01/29 04:05:22;;;;;;;22.08;6.47;;;4.00;99.90;;;;;;2082650;28;20053;-69
2022/01/29 04:06:23;;;;;;;20.90;6.53;;;4.00;99.90;;;;;;2082351;28;20541;-71
2022/01/29 04:07:23;;;;;;;16.30;6.05;;;4.00;99.90;;;;;;2082508;28;20056;-69
2022/01/29 04:08:25;;;;;;;20.15;6.03;;;4.00;99.90;;;;;;2082407;28;20099;-69
2022/01/29 04:09:27;;;;;;;22.50;6.20;;;4.00;99.90;;;;;;2082193;28;20022;-70
2022/01/29 04:10:29;;;;;;;18.10;6.20;;;4.00;99.90;;;;;;2082454;28;20079;-70
2022/01/29 04:11:30;;;;;;;18.65;6.10;;;4.00;99.90;;;;;;2082431;28;20022;-70
2022/01/29 04:12:37;;;;;;;21.60;6.50;;;4.00;99.90;;;;;;2082025;28;20034;-70
2022/01/29 04:13:41;;;;;;;19.50;6.32;;;4.00;99.90;;;;;;2081660;28;20033;-70
2022/01/29 04:14:42;;;;;;;19.92;6.00;;;4.10;99.90;;;;;;2081927;28;20065;-69
2022/01/29 04:15:43;;;;;;;17.52;6.03;;;4.10;99.90;;;;;;2073096;28;20026;-70
2022/01/29 04:16:45;;;;;;;22.38;6.47;;;4.10;99.90;;;;;;2073869;28;20057;-71
2022/01/29 04:17:45;;;;;;;21.88;6.20;;;4.10;99.90;;;;;;2082264;28;20021;-70
2022/01/29 04:18:46;;;;;;;19.05;6.03;;;4.10;99.90;;;;;;2081788;28;20029;-70
2022/01/29 04:19:46;;;;;;;20.50;6.22;;;4.10;99.90;;;;;;2073742;28;20034;-70
2022/01/29 04:20:47;;;;;;;20.95;6.38;;;4.10;99.90;;;;;;2082411;28;20021;-71
2022/01/29 04:21:48;;;;;;;17.50;6.05;;;4.10;99.90;;;;;;2081936;28;20099;-70
2022/01/29 04:22:48;;;;;;;17.75;6.25;;;4.10;99.90;;;;;;2081922;28;20104;-69
2022/01/29 04:23:49;;;;;;;18.77;6.55;;;4.10;99.90;;;;;;2081740;28;20025;-70
2022/01/29 04:24:49;;;;;;;17.70;6.43;;;4.10;99.90;;;;;;2082079;28;20013;-70
2022/01/29 04:25:52;;;;;;;21.60;6.68;;;4.10;99.90;;;;;;2082375;28;20504;-70
2022/01/29 04:26:53;;;;;;;20.25;6.68;;;4.10;99.90;;;;;;2073983;28;20042;-70
2022/01/29 04:27:53;;;;;;;20.00;6.60;;;4.10;99.90;;;;;;2066070;28;20591;-70
2022/01/29 04:28:54;;;;;;;18.38;6.18;;;4.10;99.90;;;;;;2073821;28;20497;-70
2022/01/29 04:29:58;;;;;;;18.33;6.63;;;4.10;99.90;;;;;;2081988;28;20057;-68
2022/01/29 04:31:04;;;;;;;17.25;6.40;;;4.10;99.90;;;;;;2082427;28;20079;-69
2022/01/29 04:32:11;;;;;;;21.27;7.03;;;4.10;99.90;;;;;;2081654;28;20103;-70
2022/01/29 04:34:17;;;;;;;17.73;6.50;;;4.10;99.90;;;;;;2082331;28;20029;-70
2022/01/29 04:35:19;;;;;;;17.92;6.28;;;4.10;99.90;;;;;;2082504;28;20481;-70
2022/01/29 04:36:19;;;;;;;18.30;6.78;;;4.10;99.90;;;;;;2081135;28;20038;-70
2022/01/29 04:37:20;;;;;;;18.98;6.93;;;4.10;99.90;;;;;;2081487;28;20052;-70
2022/01/29 04:38:21;;;;;;;14.95;6.43;;;4.10;99.90;;;;;;2081789;28;20021;-69
2022/01/29 04:39:21;;;;;;;18.98;6.80;;;4.10;99.90;;;;;;2081845;28;20066;-70
2022/01/29 04:40:22;;;;;;;17.65;6.97;;;4.10;99.90;;;;;;2082606;28;20122;-70
2022/01/29 04:41:23;;;;;;;18.80;7.18;;;4.20;99.90;;;;;;2082053;28;20037;-70
2022/01/29 04:42:23;;;;;;;15.45;6.82;;;4.20;99.90;;;;;;2081244;28;20108;-70
2022/01/29 04:43:24;;;;;;;18.67;6.85;;;4.20;99.90;;;;;;2081289;28;20052;-70
2022/01/29 04:44:25;;;;;;;16.65;6.50;;;4.20;99.90;;;;;;2081750;28;20400;-69
2022/01/29 04:45:25;;;;;;;18.58;6.68;;;4.20;99.90;;;;;;2081468;28;20527;-70
2022/01/29 04:46:26;;;;;;;20.15;6.43;;;4.20;99.90;;;;;;2081262;28;20044;-69
2022/01/29 04:47:27;;;;;;;17.10;6.82;;;4.20;99.90;;;;;;2073397;28;20026;-70
2022/01/29 04:48:28;;;;;;;16.85;7.13;;;4.20;99.90;;;;;;2081332;28;20132;-69
2022/01/29 04:49:28;;;;;;;20.75;6.82;;;4.20;99.90;;;;;;2081818;28;20073;-70
2022/01/29 04:50:29;;;;;;;16.02;6.90;;;4.20;99.90;;;;;;2081294;28;20022;-70
2022/01/29 04:51:29;;;;;;;23.05;7.35;;;4.20;99.90;;;;;;2072790;28;20028;-69
2022/01/29 04:52:30;;;;;;;17.15;7.15;;;4.20;99.90;;;;;;2081509;28;20421;-70
2022/01/29 04:53:31;;;;;;;17.42;7.20;;;4.20;99.90;;;;;;2082132;28;20078;-69
2022/01/29 04:54:32;;;;;;;16.02;7.38;;;4.20;99.90;;;;;;2081377;28;20107;-69
2022/01/29 04:55:34;;;;;;;17.20;7.50;;;4.20;99.90;;;;;;2080978;28;20108;-69
2022/01/29 04:56:34;;;;;;;16.42;7.50;;;4.20;99.90;;;;;;2081418;28;20079;-69
2022/01/29 04:57:37;;;;;;;17.45;7.47;;;4.20;99.90;;;;;;2081954;28;20025;-69
2022/01/29 04:58:38;;;;;;;16.65;7.00;;;4.20;99.90;;;;;;2081699;28;20094;-70
2022/01/29 04:59:39;;;;;;;17.42;7.25;;;4.20;99.90;;;;;;2081832;28;20025;-69
2022/01/29 05:00:39;;;;;;;16.98;7.35;;;4.20;99.90;;;;;;2082030;28;20037;-70
2022/01/29 05:01:40;;;;;;;15.40;7.03;;;4.20;99.90;;;;;;2081433;28;20040;-70
2022/01/29 05:02:40;;;;;;;15.57;7.25;;;4.20;99.90;;;;;;2081879;28;20021;-70
2022/01/29 05:03:41;;;;;;;18.27;7.43;;;4.20;99.90;;;;;;2081687;28;20082;-70
2022/01/29 05:04:41;;;;;;;15.15;7.45;;;4.20;99.90;;;;;;2081187;28;20452;-70
2022/01/29 05:05:43;;;;;;;16.95;7.80;;;4.20;99.90;;;;;;2072480;28;20032;-70
2022/01/29 05:06:43;;;;;;;15.20;7.30;;;4.20;99.90;;;;;;2073110;28;20022;-70
2022/01/29 05:07:44;;;;;;;17.90;7.50;;;4.20;99.90;;;;;;2081490;28;20028;-70
2022/01/29 05:08:45;;;;;;;17.35;7.55;;;4.20;99.90;;;;;;2082231;28;20029;-69
2022/01/29 05:09:46;;;;;;;19.45;8.27;;;4.20;99.90;;;;;;2081990;28;20061;-70
2022/01/29 05:10:47;;;;;;;15.43;8.07;;;4.20;99.90;;;;;;2081686;28;20100;-70
2022/01/29 05:11:50;;;;;;;15.30;8.23;;;4.20;99.90;;;;;;2081513;28;20049;-70
2022/01/29 05:12:59;;;;;;;18.05;8.65;;;4.20;99.90;;;;;;2081723;28;20500;-70
2022/01/29 05:14:02;;;;;;;17.25;8.07;;;4.20;99.90;;;;;;2081513;28;20033;-69
2022/01/29 05:15:09;;;;;;;17.85;8.80;;;4.20;99.90;;;;;;2081551;28;20479;-70
2022/01/29 05:16:35;;;;;;;17.15;8.23;;;4.20;99.90;;;;;;2081153;28;20120;-70
2022/01/29 05:26:58;;;;;;;20.25;9.60;;;4.20;99.90;;;;;;2081715;28;20096;-69
2022/01/29 05:27:59;;;;;;;19.38;10.00;;;4.20;99.90;;;;;;2081720;28;20033;-70
2022/01/29 05:29:00;;;;;;;17.35;9.65;;;4.20;99.90;;;;;;2081512;28;20137;-70
2022/01/29 05:30:00;;;;;;;18.08;10.27;;;4.20;99.90;;;;;;2081623;28;20025;-70
2022/01/29 05:31:01;;;;;;;20.20;10.75;;;4.20;99.90;;;;;;2080987;28;20030;-69
2022/01/29 05:32:06;;;;;;;18.95;10.98;;;4.20;99.90;;;;;;2080587;28;20501;-69